createdAt,value
2022-08-20T00:01:17.764Z,16.10
2022-08-20T00:03:50.244Z,15.10
2022-08-20T00:06:24.578Z,16.60
2022-08-20T00:08:53.117Z,16.50
2022-08-20T00:11:25.165Z,16.50
2022-08-20T00:13:57.454Z,19.50
2022-08-20T00:16:27.810Z,15.67
2022-08-20T00:18:55.486Z,17.40
2022-08-20T00:21:25.541Z,16.97
2022-08-20T00:23:55.522Z,17.60
2022-08-20T00:26:25.718Z,15.83
2022-08-20T00:28:53.646Z,15.77
2022-08-20T00:31:24.530Z,16.00
2022-08-20T00:33:53.411Z,19.40
2022-08-20T00:36:22.812Z,16.93
2022-08-20T00:39:02.002Z,17.83
2022-08-20T00:41:30.961Z,20.40
2022-08-20T00:44:09.980Z,18.00
2022-08-20T00:46:39.119Z,21.43
2022-08-20T00:49:08.940Z,22.77
2022-08-20T00:51:40.875Z,23.73
2022-08-20T00:54:18.736Z,18.90
2022-08-20T00:56:50.867Z,21.90
2022-08-20T00:59:22.412Z,18.27
2022-08-20T01:01:56.227Z,20.90
2022-08-20T01:04:26.157Z,21.37
2022-08-20T01:06:54.664Z,23.43
2022-08-20T01:09:49.628Z,26.23
2022-08-20T01:12:13.604Z,21.93
2022-08-20T01:14:45.868Z,19.10
2022-08-20T01:17:17.785Z,22.97
2022-08-20T01:19:52.526Z,24.60
2022-08-20T01:22:44.239Z,25.73
2022-08-20T01:25:19.673Z,25.80
2022-08-20T01:27:55.585Z,29.03
2022-08-20T01:30:25.974Z,22.87
2022-08-20T01:32:53.722Z,20.60
2022-08-20T01:35:23.617Z,23.83
2022-08-20T01:37:51.250Z,28.83
2022-08-20T01:40:32.371Z,26.47
2022-08-20T01:43:01.418Z,27.93
2022-08-20T01:45:30.895Z,26.73
2022-08-20T01:47:58.948Z,27.33
2022-08-20T01:50:29.725Z,25.63
2022-08-20T01:53:04.211Z,27.17
2022-08-20T01:55:32.718Z,24.90
2022-08-20T01:58:02.581Z,27.40
2022-08-20T02:00:30.531Z,26.93
2022-08-20T02:02:58.278Z,27.23
2022-08-20T02:05:30.331Z,27.07
2022-08-20T02:07:58.784Z,29.50
2022-08-20T02:10:26.592Z,33.47
2022-08-20T02:12:54.523Z,25.00
2022-08-20T02:15:34.583Z,26.93
2022-08-20T02:18:08.073Z,29.60
2022-08-20T02:20:36.814Z,27.80
2022-08-20T02:23:05.610Z,32.00
2022-08-20T02:25:36.728Z,29.00
2022-08-20T02:28:09.147Z,27.00
2022-08-20T02:30:42.175Z,29.30
2022-08-20T02:33:13.293Z,30.40
2022-08-20T02:35:43.417Z,29.43
2022-08-20T02:38:11.690Z,27.17
2022-08-20T02:40:40.825Z,31.03
2022-08-20T02:43:08.482Z,30.70
2022-08-20T02:45:43.426Z,34.37
2022-08-20T02:48:21.216Z,30.53
2022-08-20T02:50:51.962Z,34.53
2022-08-20T02:53:19.763Z,32.80
2022-08-20T02:55:47.857Z,29.67
2022-08-20T02:58:15.886Z,32.10
2022-08-20T03:00:44.561Z,31.00
2022-08-20T03:03:15.239Z,28.47
2022-08-20T03:05:44.573Z,38.67
2022-08-20T03:08:14.313Z,27.03
2022-08-20T03:10:43.476Z,29.10
2022-08-20T03:13:12.634Z,28.77
2022-08-20T03:15:42.749Z,33.43
2022-08-20T03:18:11.112Z,31.63
2022-08-20T03:20:40.460Z,32.73
2022-08-20T03:23:08.523Z,27.63
2022-08-20T03:25:36.970Z,29.10
2022-08-20T03:28:05.288Z,27.17
2022-08-20T03:30:32.977Z,33.40
2022-08-20T03:33:01.227Z,32.60
2022-08-20T03:35:31.257Z,26.90
2022-08-20T03:38:02.978Z,32.50
2022-08-20T03:40:33.388Z,32.73
2022-08-20T03:43:01.340Z,36.37
2022-08-20T03:45:29.834Z,29.63
2022-08-20T03:47:58.411Z,33.80
2022-08-20T03:50:29.558Z,32.83
2022-08-20T03:52:58.085Z,34.20
2022-08-20T03:55:30.075Z,33.90
2022-08-20T03:58:01.094Z,31.53
2022-08-20T04:00:30.797Z,31.97
2022-08-20T04:02:58.447Z,30.63
2022-08-20T04:05:28.437Z,31.10
2022-08-20T04:08:00.099Z,34.57
2022-08-20T04:10:32.978Z,32.00
2022-08-20T04:13:01.605Z,29.33
2022-08-20T04:15:29.543Z,34.37
2022-08-20T04:17:59.249Z,33.27
2022-08-20T04:20:27.932Z,28.37
2022-08-20T04:22:58.540Z,29.30
2022-08-20T04:25:28.435Z,30.10
2022-08-20T04:27:59.142Z,29.63
2022-08-20T04:30:27.988Z,28.60
2022-08-20T04:32:56.411Z,29.23
2022-08-20T04:35:25.351Z,31.10
2022-08-20T04:37:59.368Z,29.80
2022-08-20T04:40:45.131Z,29.00
2022-08-20T04:43:14.259Z,29.73
2022-08-20T04:45:42.134Z,30.40
2022-08-20T04:48:14.719Z,27.77
2022-08-20T04:50:45.067Z,30.43
2022-08-20T04:53:16.299Z,31.87
2022-08-20T04:55:45.993Z,28.37
2022-08-20T04:58:18.113Z,28.10
2022-08-20T05:00:48.344Z,27.60
2022-08-20T05:03:16.533Z,29.17
2022-08-20T05:05:46.198Z,26.83
2022-08-20T05:08:20.192Z,27.80
2022-08-20T05:10:48.315Z,23.40
2022-08-20T05:13:17.450Z,29.37
2022-08-20T05:15:45.614Z,32.13
2022-08-20T05:18:13.674Z,30.63
2022-08-20T05:20:42.802Z,27.37
2022-08-20T05:23:12.592Z,28.00
2022-08-20T05:25:41.884Z,29.13
2022-08-20T05:28:12.458Z,29.67
2022-08-20T05:30:44.572Z,27.17
2022-08-20T05:33:19.721Z,26.70
2022-08-20T05:35:49.308Z,25.70
2022-08-20T05:38:19.096Z,29.33
2022-08-20T05:40:47.796Z,27.10
2022-08-20T05:43:16.021Z,27.30
2022-08-20T05:45:46.918Z,26.60
2022-08-20T05:48:16.917Z,26.77
2022-08-20T05:50:46.771Z,27.33
2022-08-20T05:53:14.428Z,26.37
2022-08-20T05:55:42.927Z,29.03
2022-08-20T05:58:18.543Z,29.20
2022-08-20T06:00:48.391Z,29.53
2022-08-20T06:03:33.973Z,26.03
2022-08-20T06:06:02.078Z,26.53
2022-08-20T06:08:29.842Z,26.80
2022-08-20T06:10:57.709Z,23.27
2022-08-20T06:13:26.229Z,22.70
2022-08-20T06:15:55.586Z,26.43
2022-08-20T06:18:23.465Z,28.43
2022-08-20T06:20:55.987Z,21.57
2022-08-20T06:23:25.275Z,24.10
2022-08-20T06:25:53.292Z,25.17
2022-08-20T06:28:20.981Z,22.17
2022-08-20T06:30:48.707Z,30.60
2022-08-20T06:33:17.710Z,26.60
2022-08-20T06:35:45.436Z,24.30
2022-08-20T06:38:14.709Z,22.30
2022-08-20T06:40:42.498Z,24.20
2022-08-20T06:43:10.357Z,23.53
2022-08-20T06:45:38.894Z,22.20
2022-08-20T06:48:08.840Z,21.07
2022-08-20T06:50:47.079Z,19.67
2022-08-20T06:53:18.374Z,19.23
2022-08-20T06:55:49.551Z,23.60
2022-08-20T06:58:35.761Z,24.53
2022-08-20T07:01:05.598Z,22.67
2022-08-20T07:03:38.069Z,19.03
2022-08-20T07:06:08.426Z,21.53
2022-08-20T07:08:36.808Z,21.60
2022-08-20T07:11:04.570Z,20.70
2022-08-20T07:13:32.240Z,20.50
2022-08-20T07:15:59.961Z,20.90
2022-08-20T07:18:27.907Z,20.40
2022-08-20T07:20:57.765Z,16.93
2022-08-20T07:23:27.972Z,16.43
2022-08-20T07:25:56.314Z,18.93
2022-08-20T07:28:26.077Z,24.20
2022-08-20T07:31:13.765Z,20.37
2022-08-20T07:33:44.856Z,17.60
2022-08-20T07:36:14.018Z,16.80
2022-08-20T07:38:45.796Z,16.50
2022-08-20T07:41:14.924Z,18.60
2022-08-20T07:43:45.494Z,22.90
2022-08-20T07:46:14.948Z,17.37
2022-08-20T07:48:46.239Z,15.13
2022-08-20T07:51:17.776Z,13.97
2022-08-20T07:53:48.317Z,17.47
2022-08-20T07:56:19.218Z,18.00
2022-08-20T07:58:50.116Z,16.27
2022-08-20T08:01:20.005Z,15.40
2022-08-20T08:03:50.449Z,15.43
2022-08-20T08:06:29.027Z,16.97
2022-08-20T08:09:06.143Z,14.97
2022-08-20T08:11:37.860Z,14.27
2022-08-20T08:14:08.118Z,12.93
2022-08-20T08:16:37.346Z,12.57
2022-08-20T08:19:09.794Z,12.40
2022-08-20T08:21:37.453Z,12.67
2022-08-20T08:24:06.909Z,12.00
2022-08-20T08:26:34.562Z,12.57
2022-08-20T08:29:02.489Z,13.93
2022-08-20T08:31:30.437Z,16.63
2022-08-20T08:33:58.532Z,13.53
2022-08-20T08:36:27.324Z,14.37
2022-08-20T08:38:55.859Z,14.57
2022-08-20T08:41:31.861Z,13.80
2022-08-20T08:44:06.008Z,16.00
2022-08-20T08:46:40.251Z,14.53
2022-08-20T08:49:11.046Z,13.63
2022-08-20T08:51:42.944Z,18.63
2022-08-20T08:54:15.826Z,11.60
2022-08-20T08:56:49.845Z,16.43
2022-08-20T08:59:20.431Z,16.57
2022-08-20T09:01:54.581Z,11.50
2022-08-20T09:04:29.108Z,21.07
2022-08-20T09:06:57.411Z,17.40
2022-08-20T09:09:28.743Z,17.80
2022-08-20T09:12:04.788Z,18.70
2022-08-20T09:14:32.640Z,16.83
2022-08-20T09:17:00.430Z,13.53
2022-08-20T09:19:28.109Z,15.73
2022-08-20T09:21:56.011Z,17.87
2022-08-20T09:24:23.676Z,17.93
2022-08-20T09:26:51.368Z,18.37
2022-08-20T09:29:20.509Z,18.40
2022-08-20T09:31:48.837Z,16.63
2022-08-20T09:34:16.510Z,16.37
2022-08-20T09:36:44.171Z,17.00
2022-08-20T09:39:12.536Z,21.37
2022-08-20T09:41:40.278Z,20.40
2022-08-20T09:44:08.162Z,20.93
2022-08-20T09:46:37.515Z,20.37
2022-08-20T09:49:05.216Z,19.37
2022-08-20T09:51:34.865Z,18.20
2022-08-20T09:54:06.577Z,18.07
2022-08-20T09:56:35.741Z,18.80
2022-08-20T09:59:05.987Z,20.23
2022-08-20T10:01:35.159Z,21.90
2022-08-20T10:04:04.955Z,22.03
2022-08-20T10:06:37.573Z,20.37
2022-08-20T10:09:15.916Z,18.27
2022-08-20T10:11:48.531Z,18.90
2022-08-20T10:14:16.318Z,20.00
2022-08-20T10:16:44.080Z,20.10
2022-08-20T10:19:13.196Z,24.50
2022-08-20T10:21:41.002Z,20.20
2022-08-20T10:24:08.832Z,22.90
2022-08-20T10:26:38.674Z,23.67
2022-08-20T10:29:06.321Z,20.30
2022-08-20T10:31:34.037Z,25.73
2022-08-20T10:34:01.873Z,16.63
2022-08-20T10:36:30.966Z,24.13
2022-08-20T10:38:58.826Z,24.63
2022-08-20T10:41:28.280Z,21.47
2022-08-20T10:43:55.955Z,26.27
2022-08-20T10:46:23.660Z,25.93
2022-08-20T10:48:51.395Z,29.67
2022-08-20T10:51:19.094Z,21.43
2022-08-20T10:53:48.695Z,21.33
2022-08-20T10:56:16.415Z,26.63
2022-08-20T11:01:51.257Z,22.87
2022-08-20T11:04:20.801Z,21.40
2022-08-20T11:06:49.233Z,21.57
2022-08-20T11:09:23.402Z,19.90
2022-08-20T11:11:51.652Z,19.80
2022-08-20T11:14:20.242Z,20.30
2022-08-20T11:16:49.201Z,18.83
2022-08-20T11:19:23.005Z,26.73
2022-08-20T11:21:52.562Z,24.33
2022-08-20T11:24:25.831Z,20.10
2022-08-20T11:26:54.785Z,23.83
2022-08-20T11:29:24.943Z,25.83
2022-08-20T11:31:53.601Z,21.63
2022-08-20T11:34:22.784Z,23.77
2022-08-20T11:36:53.551Z,21.07
2022-08-20T11:39:26.893Z,22.37
2022-08-20T11:41:55.971Z,23.63
2022-08-20T11:44:23.996Z,24.60
2022-08-20T11:46:51.892Z,18.80
2022-08-20T11:49:19.956Z,28.83
2022-08-20T11:51:49.461Z,22.93
2022-08-20T11:54:18.602Z,19.40
2022-08-20T11:56:49.550Z,18.63
2022-08-20T11:59:18.335Z,19.50
2022-08-20T12:01:46.510Z,19.57
2022-08-20T12:04:33.633Z,16.97
2022-08-20T12:07:09.583Z,19.33
2022-08-20T12:09:37.503Z,19.33
2022-08-20T12:12:27.876Z,30.87
2022-08-20T12:14:56.660Z,23.40
2022-08-20T12:17:26.742Z,25.90
2022-08-20T12:19:57.065Z,29.63
2022-08-20T12:22:25.759Z,19.20
2022-08-20T12:24:53.895Z,21.77
2022-08-20T12:27:24.154Z,14.87
2022-08-20T12:29:56.092Z,14.90
2022-08-20T12:32:26.175Z,12.40
2022-08-20T12:34:54.599Z,15.50
2022-08-20T12:37:28.306Z,12.93
2022-08-20T12:39:59.148Z,13.00
2022-08-20T12:42:29.229Z,12.40
2022-08-20T12:45:07.544Z,16.83
2022-08-20T12:47:37.950Z,20.47
2022-08-20T12:50:08.938Z,11.97
2022-08-20T12:52:37.396Z,20.33
2022-08-20T12:55:06.894Z,16.37
2022-08-20T12:57:37.256Z,14.60
2022-08-20T13:00:09.456Z,13.17
2022-08-20T13:02:38.684Z,12.60
2022-08-20T13:05:07.929Z,15.20
2022-08-20T13:07:36.887Z,14.30
2022-08-20T13:10:06.611Z,12.10
2022-08-20T13:12:34.639Z,12.83
2022-08-20T13:15:02.582Z,14.60
2022-08-20T13:17:38.605Z,11.73
2022-08-20T13:20:10.801Z,14.90
2022-08-20T13:22:38.584Z,13.73
2022-08-20T13:25:07.608Z,12.17
2022-08-20T13:27:38.271Z,14.47
2022-08-20T13:30:08.291Z,12.63
2022-08-20T13:32:37.350Z,12.57
2022-08-20T13:35:06.039Z,17.57
2022-08-20T13:37:34.015Z,13.00
2022-08-20T13:40:02.064Z,14.53
2022-08-20T13:42:29.913Z,12.97
2022-08-20T13:44:57.736Z,11.20
2022-08-20T13:47:32.516Z,18.40
2022-08-20T13:50:21.577Z,13.80
2022-08-20T13:52:49.656Z,14.03
2022-08-20T13:55:41.467Z,11.93
2022-08-20T13:58:09.261Z,12.43
2022-08-20T14:00:37.518Z,14.63
2022-08-20T14:03:07.297Z,12.80
2022-08-20T14:05:37.932Z,10.40
2022-08-20T14:08:08.447Z,13.20
2022-08-20T14:10:36.451Z,6.17
2022-08-20T14:13:05.720Z,3.13
2022-08-20T14:15:33.853Z,2.80
2022-08-20T14:18:01.634Z,2.00
2022-08-20T14:20:32.539Z,2.40
2022-08-20T14:23:02.791Z,2.40
2022-08-20T14:25:38.243Z,2.87
2022-08-20T14:28:14.613Z,3.37
2022-08-20T14:30:48.679Z,8.87
2022-08-20T14:33:21.415Z,3.20
2022-08-20T14:35:56.353Z,2.40
2022-08-20T14:38:55.162Z,5.30
2022-08-20T14:41:22.852Z,4.03
2022-08-20T14:43:55.984Z,3.90
2022-08-20T14:46:23.725Z,4.10
2022-08-20T14:48:53.335Z,2.50
2022-08-20T14:51:21.451Z,3.07
2022-08-20T14:53:50.645Z,4.00
2022-08-20T14:56:21.936Z,7.30
2022-08-20T14:58:50.690Z,4.37
2022-08-20T15:01:18.447Z,6.50
2022-08-20T15:03:46.205Z,8.73
2022-08-20T15:06:21.745Z,9.53
2022-08-20T15:08:50.066Z,5.00
2022-08-20T15:11:19.677Z,4.07
2022-08-20T15:13:48.790Z,5.93
2022-08-20T15:16:16.536Z,4.67
2022-08-20T15:18:44.224Z,2.47
2022-08-20T15:21:12.557Z,4.30
2022-08-20T15:23:40.344Z,6.60
2022-08-20T15:26:08.152Z,5.23
2022-08-20T15:28:35.870Z,15.03
2022-08-20T15:31:10.035Z,6.00
2022-08-20T15:33:37.963Z,4.97
2022-08-20T15:36:08.551Z,3.40
2022-08-20T15:38:36.594Z,2.93
2022-08-20T15:41:07.678Z,2.40
2022-08-20T15:43:37.665Z,6.07
2022-08-20T15:46:07.653Z,4.10
2022-08-20T15:48:37.654Z,4.00
2022-08-20T15:51:24.217Z,4.03
2022-08-20T15:53:58.456Z,7.63
2022-08-20T15:56:41.311Z,5.77
2022-08-20T15:59:21.816Z,6.27
2022-08-20T16:02:00.304Z,5.23
2022-08-20T16:05:19.941Z,3.60
2022-08-20T16:08:00.963Z,7.50
2022-08-20T16:10:35.218Z,5.73
2022-08-20T16:13:10.731Z,5.70
2022-08-20T16:15:49.467Z,4.87
2022-08-20T16:18:23.478Z,5.37
2022-08-20T16:21:14.514Z,4.23
2022-08-20T16:23:44.629Z,2.63
2022-08-20T16:26:29.246Z,5.77
2022-08-20T16:29:04.663Z,4.97
2022-08-20T16:31:45.426Z,5.10
2022-08-20T16:34:33.729Z,4.60
2022-08-20T16:37:10.146Z,4.60
2022-08-20T16:39:48.430Z,3.90
2022-08-20T16:42:21.699Z,5.23
2022-08-20T16:44:51.785Z,4.10
2022-08-20T16:47:22.405Z,7.10
2022-08-20T16:49:58.572Z,2.43
2022-08-20T16:52:26.605Z,3.03
2022-08-20T16:54:54.374Z,7.93
2022-08-20T16:57:22.247Z,4.10
2022-08-20T17:00:09.324Z,4.83
2022-08-20T17:02:49.277Z,6.60
2022-08-20T17:05:19.670Z,5.10
2022-08-20T17:07:51.534Z,3.77
2022-08-20T17:10:24.015Z,3.20
2022-08-20T17:12:59.450Z,4.37
2022-08-20T17:15:31.592Z,4.97
2022-08-20T17:18:17.449Z,4.13
2022-08-20T17:20:46.720Z,5.37
2022-08-20T17:23:18.384Z,4.53
2022-08-20T17:25:57.533Z,5.90
2022-08-20T17:28:25.301Z,4.60
2022-08-20T17:30:53.484Z,3.03
2022-08-20T17:33:27.823Z,4.00
2022-08-20T17:36:00.344Z,2.80
2022-08-20T17:38:34.714Z,3.13
2022-08-20T17:41:04.854Z,4.00
2022-08-20T17:43:34.543Z,4.70
2022-08-20T17:46:16.313Z,4.47
2022-08-20T17:48:47.122Z,5.27
2022-08-20T17:51:19.190Z,7.10
2022-08-20T17:53:51.799Z,7.10
2022-08-20T17:56:28.459Z,7.00
2022-08-20T17:59:11.059Z,2.90
2022-08-20T18:01:38.993Z,10.83
2022-08-20T18:04:06.883Z,12.40
2022-08-20T18:06:44.737Z,5.40
2022-08-20T18:09:16.932Z,6.13
2022-08-20T18:11:49.369Z,4.70
2022-08-20T18:14:40.714Z,3.80
2022-08-20T18:17:25.213Z,5.57
2022-08-20T18:20:23.448Z,5.23
2022-08-20T18:22:57.903Z,4.97
2022-08-20T18:25:33.275Z,5.07
2022-08-20T18:28:08.052Z,6.00
2022-08-20T18:30:36.243Z,11.97
2022-08-20T18:33:07.557Z,6.13
2022-08-20T18:35:38.585Z,14.77
2022-08-20T18:38:31.379Z,5.27
2022-08-20T18:41:11.253Z,8.47
2022-08-20T18:43:39.969Z,4.50
2022-08-20T18:46:21.352Z,5.27
2022-08-20T18:48:55.850Z,4.63
2022-08-20T18:51:30.463Z,6.20
2022-08-20T18:53:59.690Z,5.17
2022-08-20T18:56:37.244Z,6.90
2022-08-20T18:59:10.109Z,5.07
2022-08-20T19:01:39.484Z,9.50
2022-08-20T19:04:19.070Z,6.23
2022-08-20T19:06:52.455Z,5.40
2022-08-20T19:09:39.435Z,4.43
2022-08-20T19:12:21.966Z,4.57
2022-08-20T19:14:59.347Z,8.17
2022-08-20T19:17:47.845Z,6.50
2022-08-20T19:20:20.289Z,5.70
2022-08-20T19:22:50.010Z,4.97
2022-08-20T19:25:28.837Z,6.77
2022-08-20T19:27:59.517Z,4.90
2022-08-20T19:30:37.517Z,4.93
2022-08-20T19:33:05.872Z,6.93
2022-08-20T19:35:34.004Z,4.90
2022-08-20T19:38:02.545Z,4.60
2022-08-20T19:40:35.156Z,8.43
2022-08-20T19:43:13.143Z,6.23
2022-08-20T19:45:45.070Z,5.53
2022-08-20T19:48:31.945Z,5.10
2022-08-20T19:51:09.794Z,6.80
2022-08-20T19:53:44.479Z,5.73
2022-08-20T19:56:17.742Z,4.20
2022-08-20T19:58:46.682Z,4.00
2022-08-20T20:01:18.333Z,8.60
2022-08-20T20:03:56.574Z,5.90
2022-08-20T20:06:26.814Z,4.20
2022-08-20T20:09:00.858Z,5.00
2022-08-20T20:11:34.491Z,5.60
2022-08-20T20:14:05.417Z,4.30
2022-08-20T20:16:33.984Z,4.73
2022-08-20T20:19:24.858Z,4.40
2022-08-20T20:21:52.194Z,4.80
2022-08-20T20:24:25.701Z,4.13
2022-08-20T20:26:54.846Z,2.80
2022-08-20T20:29:26.983Z,4.73
2022-08-20T20:31:59.843Z,5.40
2022-08-20T20:34:30.155Z,6.00
2022-08-20T20:37:04.636Z,4.90
2022-08-20T20:39:35.136Z,3.77
2022-08-20T20:42:07.011Z,4.37
2022-08-20T20:44:37.750Z,7.00
2022-08-20T20:47:09.447Z,3.20
2022-08-20T20:49:50.163Z,3.60
2022-08-20T20:52:28.444Z,4.30
2022-08-20T20:55:10.646Z,5.10
2022-08-20T20:57:40.427Z,7.33
2022-08-20T21:00:12.639Z,3.47
2022-08-20T21:02:40.566Z,4.33
2022-08-20T21:05:09.433Z,3.30
2022-08-20T21:07:50.670Z,4.60
2022-08-20T21:10:20.996Z,6.10
2022-08-20T21:12:52.993Z,3.27
2022-08-20T21:15:22.555Z,3.87
2022-08-20T21:17:56.562Z,3.13
2022-08-20T21:20:24.262Z,10.63
2022-08-20T21:22:52.065Z,5.70
2022-08-20T21:25:20.379Z,4.10
2022-08-20T21:27:52.698Z,3.40
2022-08-20T21:30:22.357Z,2.23
2022-08-20T21:32:50.761Z,4.13
2022-08-20T21:35:18.952Z,4.23
2022-08-20T21:37:46.734Z,4.07
2022-08-20T21:40:15.198Z,2.73
2022-08-20T21:42:46.284Z,7.20
2022-08-20T21:45:19.544Z,3.90
2022-08-20T21:47:48.860Z,3.07
2022-08-20T21:50:18.872Z,3.00
2022-08-20T21:52:55.498Z,3.23
2022-08-20T21:55:29.294Z,3.87
2022-08-20T21:57:58.552Z,4.13
2022-08-20T22:00:48.222Z,2.80
2022-08-20T22:03:20.038Z,3.03
2022-08-20T22:05:48.210Z,4.60
2022-08-20T22:08:16.007Z,3.50
2022-08-20T22:10:44.077Z,4.30
2022-08-20T22:13:11.971Z,4.57
2022-08-20T22:15:40.492Z,7.93
2022-08-20T22:18:10.202Z,2.93
2022-08-20T22:20:38.033Z,7.07
2022-08-20T22:23:07.294Z,5.93
2022-08-20T22:25:35.402Z,3.17
2022-08-20T22:28:03.170Z,3.90
2022-08-20T22:30:31.361Z,3.60
2022-08-20T22:33:03.892Z,3.30
2022-08-20T22:35:33.778Z,7.53
2022-08-20T22:38:01.756Z,2.70
2022-08-20T22:40:29.723Z,2.97
2022-08-20T22:42:57.547Z,3.40
2022-08-20T22:45:25.474Z,6.03
2022-08-20T22:47:53.164Z,6.33
2022-08-20T22:50:22.284Z,2.77
2022-08-20T22:52:51.997Z,3.00
2022-08-20T22:55:20.532Z,7.10
2022-08-20T22:57:48.609Z,6.03
2022-08-20T23:00:18.356Z,3.10
2022-08-20T23:02:51.386Z,5.00
2022-08-20T23:05:22.133Z,3.00
2022-08-20T23:07:54.144Z,2.73
2022-08-20T23:10:22.366Z,3.50
2022-08-20T23:12:50.067Z,4.30
2022-08-20T23:15:17.856Z,3.10
2022-08-20T23:17:45.771Z,2.40
2022-08-20T23:20:16.892Z,2.90
2022-08-20T23:22:44.981Z,2.93
2022-08-20T23:25:14.888Z,2.80
2022-08-20T23:27:45.690Z,3.97
2022-08-20T23:30:14.724Z,3.30
2022-08-20T23:32:42.871Z,2.13
2022-08-20T23:35:11.111Z,2.70
2022-08-20T23:37:41.918Z,2.57
2022-08-20T23:40:11.050Z,2.40
2022-08-20T23:42:40.178Z,2.43
2022-08-20T23:45:09.738Z,3.57
2022-08-20T23:47:37.943Z,3.20
2022-08-20T23:50:08.319Z,3.30
2022-08-20T23:52:36.066Z,3.73
2022-08-20T23:55:04.664Z,3.23
2022-08-20T23:57:32.529Z,13.87
